sensor_id;sensor_type;location;lat;lon;timestamp;pressure;altitude;pressure_sealevel;temperature;humidity
62055;BME280;48653;51.742;-1.256;2024-01-11T00:03:48;102590.32;;;1.72;52.67
62055;BME280;48653;51.742;-1.256;2024-01-11T00:06:13;102597.02;;;1.68;53.48
62055;BME280;48653;51.742;-1.256;2024-01-11T00:08:38;102603.69;;;1.47;53.94
62055;BME280;48653;51.742;-1.256;2024-01-11T00:11:04;102604.37;;;1.20;54.52
62055;BME280;48653;51.742;-1.256;2024-01-11T00:13:29;102609.99;;;2.14;52.90
62055;BME280;48653;51.742;-1.256;2024-01-11T00:15:54;102614.43;;;1.78;53.57
62055;BME280;48653;51.742;-1.256;2024-01-11T00:18:19;102611.74;;;0.85;55.56
62055;BME280;48653;51.742;-1.256;2024-01-11T00:20:45;102607.23;;;1.20;55.05
62055;BME280;48653;51.742;-1.256;2024-01-11T00:23:10;102610.80;;;1.46;53.70
62055;BME280;48653;51.742;-1.256;2024-01-11T00:25:35;102616.07;;;1.54;54.03
62055;BME280;48653;51.742;-1.256;2024-01-11T00:28:02;102614.24;;;1.01;55.26
62055;BME280;48653;51.742;-1.256;2024-01-11T00:30:26;102611.47;;;1.11;54.60
62055;BME280;48653;51.742;-1.256;2024-01-11T00:32:51;102618.65;;;0.80;55.81
62055;BME280;48653;51.742;-1.256;2024-01-11T00:35:17;102617.94;;;1.28;54.84
62055;BME280;48653;51.742;-1.256;2024-01-11T00:37:42;102621.89;;;0.71;56.04
62055;BME280;48653;51.742;-1.256;2024-01-11T00:40:08;102620.56;;;0.65;56.23
62055;BME280;48653;51.742;-1.256;2024-01-11T00:42:32;102623.04;;;0.93;55.53
62055;BME280;48653;51.742;-1.256;2024-01-11T00:44:58;102619.56;;;1.17;55.08
62055;BME280;48653;51.742;-1.256;2024-01-11T00:47:23;102622.48;;;1.03;55.37
62055;BME280;48653;51.742;-1.256;2024-01-11T00:49:48;102622.10;;;1.67;54.34
62055;BME280;48653;51.742;-1.256;2024-01-11T00:52:14;102626.40;;;1.32;54.78
62055;BME280;48653;51.742;-1.256;2024-01-11T00:54:40;102633.04;;;0.98;55.98
62055;BME280;48653;51.742;-1.256;2024-01-11T00:57:05;102629.65;;;1.22;54.59
62055;BME280;48653;51.742;-1.256;2024-01-11T00:59:31;102629.86;;;1.46;53.16
62055;BME280;48653;51.742;-1.256;2024-01-11T01:01:56;102629.71;;;1.40;53.47
62055;BME280;48653;51.742;-1.256;2024-01-11T01:04:22;102629.75;;;1.20;53.96
62055;BME280;48653;51.742;-1.256;2024-01-11T01:06:46;102634.17;;;1.06;54.08
62055;BME280;48653;51.742;-1.256;2024-01-11T01:09:12;102639.61;;;0.89;55.13
62055;BME280;48653;51.742;-1.256;2024-01-11T01:11:38;102643.39;;;1.07;54.76
62055;BME280;48653;51.742;-1.256;2024-01-11T01:14:03;102650.13;;;0.94;54.90
62055;BME280;48653;51.742;-1.256;2024-01-11T01:16:28;102652.83;;;1.90;53.25
62055;BME280;48653;51.742;-1.256;2024-01-11T01:18:53;102659.38;;;1.60;52.62
62055;BME280;48653;51.742;-1.256;2024-01-11T01:21:18;102661.93;;;1.85;52.14
62055;BME280;48653;51.742;-1.256;2024-01-11T01:23:43;102667.82;;;1.36;53.79
62055;BME280;48653;51.742;-1.256;2024-01-11T01:26:09;102668.60;;;1.70;53.17
62055;BME280;48653;51.742;-1.256;2024-01-11T01:28:34;102667.71;;;1.55;53.47
62055;BME280;48653;51.742;-1.256;2024-01-11T01:31:00;102674.64;;;0.81;55.19
62055;BME280;48653;51.742;-1.256;2024-01-11T01:33:25;102674.30;;;1.43;53.87
62055;BME280;48653;51.742;-1.256;2024-01-11T01:35:50;102676.27;;;1.24;54.66
62055;BME280;48653;51.742;-1.256;2024-01-11T01:38:15;102679.53;;;1.28;53.83
62055;BME280;48653;51.742;-1.256;2024-01-11T01:40:40;102683.45;;;1.10;54.53
62055;BME280;48653;51.742;-1.256;2024-01-11T01:43:07;102689.83;;;1.10;54.46
62055;BME280;48653;51.742;-1.256;2024-01-11T01:45:32;102693.82;;;0.56;56.80
62055;BME280;48653;51.742;-1.256;2024-01-11T01:47:58;102700.70;;;0.85;56.41
62055;BME280;48653;51.742;-1.256;2024-01-11T01:50:23;102698.99;;;0.97;55.17
62055;BME280;48653;51.742;-1.256;2024-01-11T01:52:49;102701.12;;;0.42;56.58
62055;BME280;48653;51.742;-1.256;2024-01-11T01:55:15;102702.45;;;1.05;55.27
62055;BME280;48653;51.742;-1.256;2024-01-11T01:57:40;102703.66;;;1.09;55.10
62055;BME280;48653;51.742;-1.256;2024-01-11T02:00:05;102704.78;;;1.79;54.03
62055;BME280;48653;51.742;-1.256;2024-01-11T02:02:30;102708.70;;;0.65;55.91
62055;BME280;48653;51.742;-1.256;2024-01-11T02:04:55;102710.55;;;1.34;55.09
62055;BME280;48653;51.742;-1.256;2024-01-11T02:07:20;102712.34;;;0.88;56.07
62055;BME280;48653;51.742;-1.256;2024-01-11T02:09:46;102717.11;;;1.48;54.28
62055;BME280;48653;51.742;-1.256;2024-01-11T02:12:12;102716.31;;;0.40;56.78
62055;BME280;48653;51.742;-1.256;2024-01-11T02:14:38;102708.81;;;1.01;54.90
62055;BME280;48653;51.742;-1.256;2024-01-11T02:17:03;102712.97;;;0.94;54.73
62055;BME280;48653;51.742;-1.256;2024-01-11T02:19:28;102716.52;;;1.31;54.06
62055;BME280;48653;51.742;-1.256;2024-01-11T02:21:54;102717.46;;;1.37;53.34
62055;BME280;48653;51.742;-1.256;2024-01-11T02:24:19;102720.34;;;1.36;53.59
62055;BME280;48653;51.742;-1.256;2024-01-11T02:26:57;102718.73;;;1.04;54.43
62055;BME280;48653;51.742;-1.256;2024-01-11T02:29:09;102719.75;;;1.37;54.38
62055;BME280;48653;51.742;-1.256;2024-01-11T02:31:35;102719.84;;;1.35;54.24
62055;BME280;48653;51.742;-1.256;2024-01-11T02:34:00;102715.68;;;0.70;55.16
62055;BME280;48653;51.742;-1.256;2024-01-11T02:36:27;102717.13;;;1.50;54.07
62055;BME280;48653;51.742;-1.256;2024-01-11T02:38:53;102711.70;;;1.06;54.76
62055;BME280;48653;51.742;-1.256;2024-01-11T02:41:18;102719.60;;;0.25;56.80
62055;BME280;48653;51.742;-1.256;2024-01-11T02:43:47;102719.41;;;0.79;55.35
62055;BME280;48653;51.742;-1.256;2024-01-11T02:46:08;102720.88;;;0.56;56.42
62055;BME280;48653;51.742;-1.256;2024-01-11T02:48:34;102719.82;;;1.05;55.21
62055;BME280;48653;51.742;-1.256;2024-01-11T02:50:59;102722.15;;;0.26;56.84
62055;BME280;48653;51.742;-1.256;2024-01-11T02:53:25;102730.03;;;-0.52;59.26
62055;BME280;48653;51.742;-1.256;2024-01-11T02:55:50;102730.33;;;0.84;56.33
62055;BME280;48653;51.742;-1.256;2024-01-11T02:58:16;102739.21;;;0.37;57.39
62055;BME280;48653;51.742;-1.256;2024-01-11T03:00:41;102738.50;;;0.53;56.30
62055;BME280;48653;51.742;-1.256;2024-01-11T03:03:06;102739.50;;;0.84;55.40
62055;BME280;48653;51.742;-1.256;2024-01-11T03:05:31;102740.58;;;1.12;55.26
62055;BME280;48653;51.742;-1.256;2024-01-11T03:07:57;102745.89;;;0.65;56.31
62055;BME280;48653;51.742;-1.256;2024-01-11T03:10:22;102741.94;;;1.26;54.88
62055;BME280;48653;51.742;-1.256;2024-01-11T03:12:48;102744.03;;;1.10;54.51
62055;BME280;48653;51.742;-1.256;2024-01-11T03:15:13;102752.77;;;0.52;55.62
62055;BME280;48653;51.742;-1.256;2024-01-11T03:17:39;102754.89;;;0.71;55.32
62055;BME280;48653;51.742;-1.256;2024-01-11T03:20:05;102760.73;;;0.84;55.24
62055;BME280;48653;51.742;-1.256;2024-01-11T03:22:29;102765.71;;;0.43;55.45
62055;BME280;48653;51.742;-1.256;2024-01-11T03:24:54;102765.37;;;0.73;55.09
62055;BME280;48653;51.742;-1.256;2024-01-11T03:27:20;102770.16;;;1.15;54.09
62055;BME280;48653;51.742;-1.256;2024-01-11T03:29:45;102769.07;;;1.46;53.87
62055;BME280;48653;51.742;-1.256;2024-01-11T03:32:11;102768.38;;;1.33;54.07
62055;BME280;48653;51.742;-1.256;2024-01-11T03:34:35;102770.83;;;1.33;54.10
62055;BME280;48653;51.742;-1.256;2024-01-11T03:37:00;102769.72;;;1.67;53.33
62055;BME280;48653;51.742;-1.256;2024-01-11T03:39:26;102770.32;;;1.86;52.90
62055;BME280;48653;51.742;-1.256;2024-01-11T03:41:52;102771.02;;;1.43;53.27
62055;BME280;48653;51.742;-1.256;2024-01-11T03:44:16;102771.01;;;0.95;54.17
62055;BME280;48653;51.742;-1.256;2024-01-11T03:46:42;102776.01;;;1.38;53.81
62055;BME280;48653;51.742;-1.256;2024-01-11T03:49:07;102778.74;;;0.86;54.24
62055;BME280;48653;51.742;-1.256;2024-01-11T03:51:32;102781.05;;;1.69;52.61
62055;BME280;48653;51.742;-1.256;2024-01-11T03:53:57;102786.07;;;1.17;54.16
62055;BME280;48653;51.742;-1.256;2024-01-11T03:56:23;102786.75;;;1.29;54.20
62055;BME280;48653;51.742;-1.256;2024-01-11T03:58:48;102788.31;;;1.29;53.69
62055;BME280;48653;51.742;-1.256;2024-01-11T04:01:13;102796.77;;;1.41;53.54
62055;BME280;48653;51.742;-1.256;2024-01-11T04:03:39;102800.45;;;1.53;52.93
62055;BME280;48653;51.742;-1.256;2024-01-11T04:06:05;102802.49;;;1.99;51.79
62055;BME280;48653;51.742;-1.256;2024-01-11T04:08:30;102805.07;;;1.41;52.70
62055;BME280;48653;51.742;-1.256;2024-01-11T04:10:55;102810.44;;;1.68;52.01
62055;BME280;48653;51.742;-1.256;2024-01-11T04:13:21;102817.56;;;1.57;52.74
62055;BME280;48653;51.742;-1.256;2024-01-11T04:15:47;102821.53;;;1.69;51.91
62055;BME280;48653;51.742;-1.256;2024-01-11T04:18:12;102820.39;;;1.67;51.80
62055;BME280;48653;51.742;-1.256;2024-01-11T04:20:37;102824.12;;;1.59;52.28
62055;BME280;48653;51.742;-1.256;2024-01-11T04:23:03;102825.13;;;2.43;50.88
62055;BME280;48653;51.742;-1.256;2024-01-11T04:25:28;102829.89;;;1.39;52.33
62055;BME280;48653;51.742;-1.256;2024-01-11T04:27:53;102832.99;;;1.78;51.84
62055;BME280;48653;51.742;-1.256;2024-01-11T04:30:18;102830.39;;;2.39;50.72
62055;BME280;48653;51.742;-1.256;2024-01-11T04:32:43;102826.89;;;2.25;51.13
62055;BME280;48653;51.742;-1.256;2024-01-11T04:35:09;102831.95;;;2.17;50.61
62055;BME280;48653;51.742;-1.256;2024-01-11T04:37:35;102828.25;;;1.76;50.95
62055;BME280;48653;51.742;-1.256;2024-01-11T04:40:00;102832.26;;;1.90;51.60
62055;BME280;48653;51.742;-1.256;2024-01-11T04:42:26;102830.75;;;1.76;51.75
62055;BME280;48653;51.742;-1.256;2024-01-11T04:44:51;102828.73;;;2.03;51.19
62055;BME280;48653;51.742;-1.256;2024-01-11T04:47:17;102826.01;;;2.19;51.13
62055;BME280;48653;51.742;-1.256;2024-01-11T04:49:42;102820.08;;;2.56;50.41
62055;BME280;48653;51.742;-1.256;2024-01-11T04:52:08;102824.69;;;1.62;51.92
62055;BME280;48653;51.742;-1.256;2024-01-11T04:54:33;102825.29;;;1.65;52.01
62055;BME280;48653;51.742;-1.256;2024-01-11T04:56:58;102821.40;;;1.93;51.48
62055;BME280;48653;51.742;-1.256;2024-01-11T04:59:25;102823.07;;;1.71;52.65
62055;BME280;48653;51.742;-1.256;2024-01-11T05:01:49;102826.90;;;1.74;52.32
62055;BME280;48653;51.742;-1.256;2024-01-11T05:04:13;102829.28;;;1.56;52.54
62055;BME280;48653;51.742;-1.256;2024-01-11T05:06:39;102832.51;;;0.87;54.84
62055;BME280;48653;51.742;-1.256;2024-01-11T05:09:05;102836.55;;;1.46;54.02
62055;BME280;48653;51.742;-1.256;2024-01-11T05:11:30;102838.86;;;1.59;52.70
62055;BME280;48653;51.742;-1.256;2024-01-11T05:13:55;102840.88;;;1.96;51.91
62055;BME280;48653;51.742;-1.256;2024-01-11T05:16:22;102843.70;;;1.95;52.51
62055;BME280;48653;51.742;-1.256;2024-01-11T05:18:46;102839.74;;;2.27;51.86
62055;BME280;48653;51.742;-1.256;2024-01-11T05:21:12;102841.87;;;1.61;52.29
62055;BME280;48653;51.742;-1.256;2024-01-11T05:23:37;102844.77;;;1.88;51.79
62055;BME280;48653;51.742;-1.256;2024-01-11T05:26:03;102847.24;;;1.66;52.51
62055;BME280;48653;51.742;-1.256;2024-01-11T05:28:28;102850.01;;;1.70;52.87
62055;BME280;48653;51.742;-1.256;2024-01-11T05:30:53;102855.02;;;1.69;52.46
62055;BME280;48653;51.742;-1.256;2024-01-11T05:33:18;102848.92;;;2.27;51.45
62055;BME280;48653;51.742;-1.256;2024-01-11T05:35:43;102856.31;;;0.65;54.20
62055;BME280;48653;51.742;-1.256;2024-01-11T05:38:09;102859.34;;;1.42;53.29
62055;BME280;48653;51.742;-1.256;2024-01-11T05:40:34;102861.16;;;1.70;53.36
62055;BME280;48653;51.742;-1.256;2024-01-11T05:42:59;102864.89;;;1.45;53.36
62055;BME280;48653;51.742;-1.256;2024-01-11T05:45:25;102860.29;;;1.02;54.56
62055;BME280;48653;51.742;-1.256;2024-01-11T05:47:50;102863.94;;;1.57;53.49
62055;BME280;48653;51.742;-1.256;2024-01-11T05:50:16;102869.32;;;1.13;53.88
62055;BME280;48653;51.742;-1.256;2024-01-11T05:52:41;102870.18;;;0.89;55.49
62055;BME280;48653;51.742;-1.256;2024-01-11T05:55:07;102873.94;;;0.48;56.80
62055;BME280;48653;51.742;-1.256;2024-01-11T05:57:31;102875.29;;;0.35;56.71
62055;BME280;48653;51.742;-1.256;2024-01-11T05:59:56;102873.32;;;1.08;54.70
62055;BME280;48653;51.742;-1.256;2024-01-11T06:02:22;102877.30;;;0.41;56.41
62055;BME280;48653;51.742;-1.256;2024-01-11T06:04:47;102877.04;;;0.81;56.07
62055;BME280;48653;51.742;-1.256;2024-01-11T06:07:13;102879.85;;;0.54;56.73
62055;BME280;48653;51.742;-1.256;2024-01-11T06:09:38;102881.30;;;0.65;56.46
62055;BME280;48653;51.742;-1.256;2024-01-11T06:12:04;102883.13;;;1.09;55.50
62055;BME280;48653;51.742;-1.256;2024-01-11T06:14:29;102886.90;;;0.94;54.82
62055;BME280;48653;51.742;-1.256;2024-01-11T06:16:55;102892.07;;;0.87;55.04
62055;BME280;48653;51.742;-1.256;2024-01-11T06:19:21;102895.26;;;0.74;55.26
62055;BME280;48653;51.742;-1.256;2024-01-11T06:21:44;102898.69;;;0.74;54.98
62055;BME280;48653;51.742;-1.256;2024-01-11T06:24:10;102902.65;;;0.92;55.38
62055;BME280;48653;51.742;-1.256;2024-01-11T06:26:35;102908.15;;;1.74;53.87
62055;BME280;48653;51.742;-1.256;2024-01-11T06:29:01;102910.78;;;1.24;54.35
62055;BME280;48653;51.742;-1.256;2024-01-11T06:31:27;102916.09;;;2.05;53.18
62055;BME280;48653;51.742;-1.256;2024-01-11T06:33:51;102922.02;;;1.58;53.46
62055;BME280;48653;51.742;-1.256;2024-01-11T06:36:17;102923.85;;;1.49;53.47
62055;BME280;48653;51.742;-1.256;2024-01-11T06:38:42;102925.47;;;0.07;56.66
62055;BME280;48653;51.742;-1.256;2024-01-11T06:41:08;102927.46;;;1.25;54.77
62055;BME280;48653;51.742;-1.256;2024-01-11T06:43:33;102932.48;;;0.76;56.06
62055;BME280;48653;51.742;-1.256;2024-01-11T06:46:03;102932.20;;;1.25;55.07
62055;BME280;48653;51.742;-1.256;2024-01-11T06:48:24;102931.87;;;1.24;55.09
62055;BME280;48653;51.742;-1.256;2024-01-11T06:50:49;102932.72;;;1.72;54.08
62055;BME280;48653;51.742;-1.256;2024-01-11T06:53:14;102933.40;;;1.67;54.27
62055;BME280;48653;51.742;-1.256;2024-01-11T06:55:40;102933.60;;;1.43;54.00
62055;BME280;48653;51.742;-1.256;2024-01-11T06:58:06;102936.70;;;0.99;55.20
62055;BME280;48653;51.742;-1.256;2024-01-11T07:00:31;102934.89;;;1.35;54.78
62055;BME280;48653;51.742;-1.256;2024-01-11T07:02:56;102942.40;;;1.70;53.82
62055;BME280;48653;51.742;-1.256;2024-01-11T07:05:22;102939.03;;;1.61;54.23
62055;BME280;48653;51.742;-1.256;2024-01-11T07:07:47;102944.28;;;1.74;54.11
62055;BME280;48653;51.742;-1.256;2024-01-11T07:10:12;102949.50;;;1.73;53.69
62055;BME280;48653;51.742;-1.256;2024-01-11T07:12:38;102951.82;;;1.66;53.88
62055;BME280;48653;51.742;-1.256;2024-01-11T07:15:03;102953.33;;;1.70;54.19
62055;BME280;48653;51.742;-1.256;2024-01-11T07:17:28;102959.92;;;1.28;54.58
62055;BME280;48653;51.742;-1.256;2024-01-11T07:19:53;102959.67;;;1.59;54.23
62055;BME280;48653;51.742;-1.256;2024-01-11T07:22:18;102962.06;;;1.36;55.02
62055;BME280;48653;51.742;-1.256;2024-01-11T07:24:43;102962.05;;;1.25;54.80
62055;BME280;48653;51.742;-1.256;2024-01-11T07:27:09;102967.82;;;0.75;56.12
62055;BME280;48653;51.742;-1.256;2024-01-11T07:29:34;102970.09;;;1.51;54.87
62055;BME280;48653;51.742;-1.256;2024-01-11T07:31:59;102971.16;;;1.50;54.89
62055;BME280;48653;51.742;-1.256;2024-01-11T07:34:25;102974.77;;;0.94;56.47
62055;BME280;48653;51.742;-1.256;2024-01-11T07:36:49;102983.54;;;0.93;56.22
62055;BME280;48653;51.742;-1.256;2024-01-11T07:39:15;102987.46;;;1.48;54.57
62055;BME280;48653;51.742;-1.256;2024-01-11T07:41:40;102988.88;;;0.61;56.41
62055;BME280;48653;51.742;-1.256;2024-01-11T07:44:06;102990.42;;;1.28;54.72
62055;BME280;48653;51.742;-1.256;2024-01-11T07:46:31;102991.24;;;1.02;54.96
62055;BME280;48653;51.742;-1.256;2024-01-11T07:48:56;102995.89;;;1.20;54.58
62055;BME280;48653;51.742;-1.256;2024-01-11T07:51:22;102998.57;;;1.76;54.26
62055;BME280;48653;51.742;-1.256;2024-01-11T07:53:46;102997.91;;;1.29;54.96
62055;BME280;48653;51.742;-1.256;2024-01-11T07:56:12;103002.22;;;2.03;53.62
62055;BME280;48653;51.742;-1.256;2024-01-11T07:58:37;103008.57;;;1.81;53.03
62055;BME280;48653;51.742;-1.256;2024-01-11T08:01:05;103010.17;;;1.61;52.99
62055;BME280;48653;51.742;-1.256;2024-01-11T08:03:27;103015.02;;;1.58;53.04
62055;BME280;48653;51.742;-1.256;2024-01-11T08:05:53;103016.50;;;1.74;53.28
62055;BME280;48653;51.742;-1.256;2024-01-11T08:08:17;103018.54;;;1.68;52.78
62055;BME280;48653;51.742;-1.256;2024-01-11T08:10:43;103013.97;;;1.65;53.26
62055;BME280;48653;51.742;-1.256;2024-01-11T08:13:08;103021.51;;;2.07;52.50
62055;BME280;48653;51.742;-1.256;2024-01-11T08:15:34;103018.25;;;1.43;53.21
62055;BME280;48653;51.742;-1.256;2024-01-11T08:17:58;103016.77;;;2.20;51.29
62055;BME280;48653;51.742;-1.256;2024-01-11T08:20:23;103019.77;;;1.63;52.64
62055;BME280;48653;51.742;-1.256;2024-01-11T08:22:49;103024.53;;;1.30;53.85
62055;BME280;48653;51.742;-1.256;2024-01-11T08:25:15;103026.22;;;1.35;53.80
62055;BME280;48653;51.742;-1.256;2024-01-11T08:27:39;103030.01;;;1.94;53.21
62055;BME280;48653;51.742;-1.256;2024-01-11T08:30:06;103035.95;;;2.24;52.50
62055;BME280;48653;51.742;-1.256;2024-01-11T08:32:30;103037.21;;;2.40;52.03
62055;BME280;48653;51.742;-1.256;2024-01-11T08:34:57;103046.12;;;2.08;52.71
62055;BME280;48653;51.742;-1.256;2024-01-11T08:37:20;103052.54;;;1.43;54.01
62055;BME280;48653;51.742;-1.256;2024-01-11T08:39:46;103061.50;;;1.56;53.85
62055;BME280;48653;51.742;-1.256;2024-01-11T08:42:11;103063.04;;;1.85;52.76
62055;BME280;48653;51.742;-1.256;2024-01-11T08:44:36;103069.96;;;1.01;54.84
62055;BME280;48653;51.742;-1.256;2024-01-11T08:47:02;103075.73;;;1.52;53.95
62055;BME280;48653;51.742;-1.256;2024-01-11T08:49:26;103078.04;;;2.15;52.99
62055;BME280;48653;51.742;-1.256;2024-01-11T08:51:52;103078.06;;;1.13;54.76
62055;BME280;48653;51.742;-1.256;2024-01-11T08:54:17;103085.32;;;1.69;53.49
62055;BME280;48653;51.742;-1.256;2024-01-11T08:56:42;103085.62;;;2.02;53.23
62055;BME280;48653;51.742;-1.256;2024-01-11T08:59:07;103087.05;;;2.04;53.42
62055;BME280;48653;51.742;-1.256;2024-01-11T09:01:33;103088.84;;;2.62;52.61
62055;BME280;48653;51.742;-1.256;2024-01-11T09:03:58;103094.05;;;2.24;52.39
62055;BME280;48653;51.742;-1.256;2024-01-11T09:06:23;103098.67;;;2.04;53.57
62055;BME280;48653;51.742;-1.256;2024-01-11T09:08:48;103102.43;;;1.85;53.65
62055;BME280;48653;51.742;-1.256;2024-01-11T09:11:16;103111.62;;;2.13;54.04
62055;BME280;48653;51.742;-1.256;2024-01-11T09:13:38;103115.47;;;2.24;53.43
62055;BME280;48653;51.742;-1.256;2024-01-11T09:16:04;103109.39;;;2.55;52.84
62055;BME280;48653;51.742;-1.256;2024-01-11T09:18:29;103114.00;;;2.02;53.85
62055;BME280;48653;51.742;-1.256;2024-01-11T09:20:54;103114.84;;;1.91;53.62
62055;BME280;48653;51.742;-1.256;2024-01-11T09:23:19;103110.94;;;1.45;54.96
62055;BME280;48653;51.742;-1.256;2024-01-11T09:25:45;103115.94;;;1.40;54.26
62055;BME280;48653;51.742;-1.256;2024-01-11T09:28:10;103119.58;;;1.11;55.69
62055;BME280;48653;51.742;-1.256;2024-01-11T09:30:35;103121.43;;;1.61;55.14
62055;BME280;48653;51.742;-1.256;2024-01-11T09:33:01;103126.74;;;2.19;53.97
62055;BME280;48653;51.742;-1.256;2024-01-11T09:35:25;103129.03;;;1.97;53.52
62055;BME280;48653;51.742;-1.256;2024-01-11T09:37:50;103130.60;;;2.71;52.52
62055;BME280;48653;51.742;-1.256;2024-01-11T09:40:17;103136.83;;;2.45;52.53
62055;BME280;48653;51.742;-1.256;2024-01-11T09:42:42;103138.59;;;2.83;51.97
62055;BME280;48653;51.742;-1.256;2024-01-11T09:45:10;103144.43;;;2.84;51.78
62055;BME280;48653;51.742;-1.256;2024-01-11T09:47:34;103147.21;;;3.06;51.29
62055;BME280;48653;51.742;-1.256;2024-01-11T09:49:59;103147.86;;;3.84;49.88
62055;BME280;48653;51.742;-1.256;2024-01-11T09:52:26;103148.95;;;3.58;49.82
62055;BME280;48653;51.742;-1.256;2024-01-11T09:54:49;103149.26;;;3.85;49.03
62055;BME280;48653;51.742;-1.256;2024-01-11T09:57:16;103152.30;;;3.55;48.79
62055;BME280;48653;51.742;-1.256;2024-01-11T09:59:40;103157.42;;;3.63;49.23
62055;BME280;48653;51.742;-1.256;2024-01-11T10:02:05;103158.78;;;3.70;49.72
62055;BME280;48653;51.742;-1.256;2024-01-11T10:04:29;103159.63;;;3.78;49.31
62055;BME280;48653;51.742;-1.256;2024-01-11T10:06:55;103166.82;;;4.22;49.70
62055;BME280;48653;51.742;-1.256;2024-01-11T10:09:20;103164.78;;;4.38;48.58
62055;BME280;48653;51.742;-1.256;2024-01-11T10:11:45;103168.82;;;3.47;50.14
62055;BME280;48653;51.742;-1.256;2024-01-11T10:14:12;103169.75;;;3.01;50.27
62055;BME280;48653;51.742;-1.256;2024-01-11T10:16:35;103174.64;;;3.14;50.59
62055;BME280;48653;51.742;-1.256;2024-01-11T10:19:00;103170.43;;;3.10;50.30
62055;BME280;48653;51.742;-1.256;2024-01-11T10:21:27;103171.66;;;3.29;49.96
62055;BME280;48653;51.742;-1.256;2024-01-11T10:23:51;103175.68;;;3.49;49.40
62055;BME280;48653;51.742;-1.256;2024-01-11T10:26:16;103183.09;;;3.76;49.71
62055;BME280;48653;51.742;-1.256;2024-01-11T10:28:44;103179.45;;;4.12;49.19
62055;BME280;48653;51.742;-1.256;2024-01-11T10:31:07;103190.82;;;2.54;51.17
62055;BME280;48653;51.742;-1.256;2024-01-11T10:33:33;103189.80;;;3.28;50.67
62055;BME280;48653;51.742;-1.256;2024-01-11T10:35:57;103186.89;;;4.12;49.31
62055;BME280;48653;51.742;-1.256;2024-01-11T10:38:25;103187.72;;;3.68;49.18
62055;BME280;48653;51.742;-1.256;2024-01-11T10:40:48;103185.03;;;3.53;50.35
62055;BME280;48653;51.742;-1.256;2024-01-11T10:43:18;103185.49;;;3.28;51.20
62055;BME280;48653;51.742;-1.256;2024-01-11T10:45:39;103180.74;;;3.83;50.18
62055;BME280;48653;51.742;-1.256;2024-01-11T10:48:07;103180.28;;;3.85;49.77
62055;BME280;48653;51.742;-1.256;2024-01-11T10:50:32;103180.11;;;3.61;49.50
62055;BME280;48653;51.742;-1.256;2024-01-11T10:53:02;103188.90;;;3.01;51.02
62055;BME280;48653;51.742;-1.256;2024-01-11T10:55:19;103189.00;;;3.44;51.01
62055;BME280;48653;51.742;-1.256;2024-01-11T10:57:45;103187.88;;;3.28;50.86
62055;BME280;48653;51.742;-1.256;2024-01-11T11:00:10;103179.70;;;3.98;50.11
62055;BME280;48653;51.742;-1.256;2024-01-11T11:02:35;103184.93;;;3.86;49.76
62055;BME280;48653;51.742;-1.256;2024-01-11T11:05:01;103189.08;;;3.05;50.84
62055;BME280;48653;51.742;-1.256;2024-01-11T11:07:26;103182.65;;;3.48;50.69
62055;BME280;48653;51.742;-1.256;2024-01-11T11:09:51;103188.42;;;3.29;51.15
62055;BME280;48653;51.742;-1.256;2024-01-11T11:12:17;103185.80;;;3.36;50.99
62055;BME280;48653;51.742;-1.256;2024-01-11T11:14:41;103187.91;;;3.88;50.35
62055;BME280;48653;51.742;-1.256;2024-01-11T11:17:06;103188.45;;;3.99;49.64
62055;BME280;48653;51.742;-1.256;2024-01-11T11:19:32;103195.15;;;3.35;50.20
62055;BME280;48653;51.742;-1.256;2024-01-11T11:21:57;103190.92;;;2.86;51.15
62055;BME280;48653;51.742;-1.256;2024-01-11T11:24:22;103191.84;;;3.28;50.79
62055;BME280;48653;51.742;-1.256;2024-01-11T11:26:48;103186.87;;;4.08;49.73
62055;BME280;48653;51.742;-1.256;2024-01-11T11:29:15;103188.44;;;4.55;48.90
62055;BME280;48653;51.742;-1.256;2024-01-11T11:31:42;103191.80;;;4.10;49.51
62055;BME280;48653;51.742;-1.256;2024-01-11T11:34:04;103194.27;;;3.93;49.11
62055;BME280;48653;51.742;-1.256;2024-01-11T11:36:29;103198.76;;;3.59;50.14
62055;BME280;48653;51.742;-1.256;2024-01-11T11:38:53;103197.25;;;3.17;51.58
62055;BME280;48653;51.742;-1.256;2024-01-11T11:41:18;103193.21;;;2.86;52.22
62055;BME280;48653;51.742;-1.256;2024-01-11T11:43:48;103200.68;;;3.26;51.72
62055;BME280;48653;51.742;-1.256;2024-01-11T11:46:09;103202.63;;;3.79;50.76
62055;BME280;48653;51.742;-1.256;2024-01-11T11:48:49;103198.46;;;3.17;50.91
62055;BME280;48653;51.742;-1.256;2024-01-11T11:51:02;103199.09;;;3.23;51.30
62055;BME280;48653;51.742;-1.256;2024-01-11T11:53:24;103201.67;;;3.41;51.17
62055;BME280;48653;51.742;-1.256;2024-01-11T11:55:49;103199.69;;;3.81;50.70
62055;BME280;48653;51.742;-1.256;2024-01-11T11:58:14;103198.00;;;2.45;51.84
62055;BME280;48653;51.742;-1.256;2024-01-11T12:00:41;103198.19;;;2.83;52.44
62055;BME280;48653;51.742;-1.256;2024-01-11T12:03:05;103199.11;;;3.22;50.99
62055;BME280;48653;51.742;-1.256;2024-01-11T12:05:30;103193.86;;;2.38;52.37
62055;BME280;48653;51.742;-1.256;2024-01-11T12:07:55;103200.65;;;3.34;50.76
62055;BME280;48653;51.742;-1.256;2024-01-11T12:10:21;103202.19;;;3.51;49.88
62055;BME280;48653;51.742;-1.256;2024-01-11T12:12:46;103203.00;;;3.84;49.77
62055;BME280;48653;51.742;-1.256;2024-01-11T12:15:10;103204.85;;;3.80;49.29
62055;BME280;48653;51.742;-1.256;2024-01-11T12:17:37;103203.60;;;4.08;48.99
62055;BME280;48653;51.742;-1.256;2024-01-11T12:20:01;103203.11;;;3.19;50.58
62055;BME280;48653;51.742;-1.256;2024-01-11T12:22:27;103207.88;;;3.48;50.34
62055;BME280;48653;51.742;-1.256;2024-01-11T12:24:52;103210.32;;;3.42;50.79
62055;BME280;48653;51.742;-1.256;2024-01-11T12:27:17;103216.39;;;4.18;49.20
62055;BME280;48653;51.742;-1.256;2024-01-11T12:29:42;103212.96;;;4.04;49.74
62055;BME280;48653;51.742;-1.256;2024-01-11T12:32:08;103215.84;;;3.56;50.39
62055;BME280;48653;51.742;-1.256;2024-01-11T12:34:33;103213.03;;;3.69;49.89
62055;BME280;48653;51.742;-1.256;2024-01-11T12:36:58;103206.93;;;3.42;50.24
62055;BME280;48653;51.742;-1.256;2024-01-11T12:39:25;103202.63;;;3.32;50.25
62055;BME280;48653;51.742;-1.256;2024-01-11T12:41:49;103202.68;;;4.40;49.27